sensor_id;sensor_type;location;lat;lon;timestamp;pressure;altitude;pressure_sealevel;temperature;humidity
70133;BME280;57495;49.922;7.966;2023-05-20T00:00:40;100286.69;;;14.77;61.95
70133;BME280;57495;49.922;7.966;2023-05-20T00:02:41;100286.19;;;14.82;62.55
70133;BME280;57495;49.922;7.966;2023-05-20T00:04:44;100277.28;;;14.81;62.60
70133;BME280;57495;49.922;7.966;2023-05-20T00:06:45;100287.84;;;14.75;63.06
70133;BME280;57495;49.922;7.966;2023-05-20T00:08:47;100276.25;;;14.82;62.71
70133;BME280;57495;49.922;7.966;2023-05-20T00:10:48;100284.31;;;14.66;63.40
70133;BME280;57495;49.922;7.966;2023-05-20T00:12:50;100285.00;;;14.76;62.83
70133;BME280;57495;49.922;7.966;2023-05-20T00:14:51;100278.25;;;14.72;63.04
70133;BME280;57495;49.922;7.966;2023-05-20T00:16:53;100271.50;;;14.68;63.17
70133;BME280;57495;49.922;7.966;2023-05-20T00:18:54;100273.84;;;14.63;63.39
70133;BME280;57495;49.922;7.966;2023-05-20T00:20:58;100264.94;;;14.71;63.32
70133;BME280;57495;49.922;7.966;2023-05-20T00:22:59;100271.06;;;14.46;63.94
70133;BME280;57495;49.922;7.966;2023-05-20T00:25:01;100272.09;;;14.54;64.12
70133;BME280;57495;49.922;7.966;2023-05-20T00:27:02;100274.31;;;14.58;64.29
70133;BME280;57495;49.922;7.966;2023-05-20T00:29:04;100267.94;;;14.59;64.57
70133;BME280;57495;49.922;7.966;2023-05-20T00:31:05;100276.38;;;14.64;64.80
70133;BME280;57495;49.922;7.966;2023-05-20T00:33:07;100276.13;;;14.49;64.97
70133;BME280;57495;49.922;7.966;2023-05-20T00:35:08;100278.72;;;14.59;64.90
70133;BME280;57495;49.922;7.966;2023-05-20T00:37:12;100279.00;;;14.56;64.80
70133;BME280;57495;49.922;7.966;2023-05-20T00:39:13;100284.94;;;14.60;64.62
70133;BME280;57495;49.922;7.966;2023-05-20T00:41:14;100274.00;;;14.61;64.40
70133;BME280;57495;49.922;7.966;2023-05-20T00:43:16;100272.56;;;14.49;64.68
70133;BME280;57495;49.922;7.966;2023-05-20T00:45:19;100266.03;;;14.52;64.48
70133;BME280;57495;49.922;7.966;2023-05-20T00:47:24;100279.00;;;14.56;64.10
70133;BME280;57495;49.922;7.966;2023-05-20T00:49:26;100275.09;;;14.50;64.38
70133;BME280;57495;49.922;7.966;2023-05-20T00:51:28;100271.47;;;14.60;64.62
70133;BME280;57495;49.922;7.966;2023-05-20T00:53:31;100273.09;;;14.53;65.01
70133;BME280;57495;49.922;7.966;2023-05-20T00:55:32;100273.16;;;14.61;65.19
70133;BME280;57495;49.922;7.966;2023-05-20T00:57:34;100276.38;;;14.64;64.84
70133;BME280;57495;49.922;7.966;2023-05-20T00:59:37;100273.84;;;14.63;65.06
70133;BME280;57495;49.922;7.966;2023-05-20T01:01:39;100267.84;;;14.43;66.12
70133;BME280;57495;49.922;7.966;2023-05-20T01:03:40;100263.59;;;14.32;66.93
70133;BME280;57495;49.922;7.966;2023-05-20T01:05:42;100266.94;;;14.26;66.89
70133;BME280;57495;49.922;7.966;2023-05-20T01:07:43;100257.81;;;14.19;67.51
70133;BME280;57495;49.922;7.966;2023-05-20T01:09:46;100262.34;;;14.18;67.50
70133;BME280;57495;49.922;7.966;2023-05-20T01:11:53;100260.19;;;14.22;67.85
70133;BME280;57495;49.922;7.966;2023-05-20T01:13:59;100261.56;;;14.34;66.69
70133;BME280;57495;49.922;7.966;2023-05-20T01:16:10;100268.66;;;14.35;67.04
70133;BME280;57495;49.922;7.966;2023-05-20T01:18:12;100264.91;;;14.28;67.25
70133;BME280;57495;49.922;7.966;2023-05-20T01:20:18;100268.81;;;14.34;67.16
70133;BME280;57495;49.922;7.966;2023-05-20T01:22:24;100259.84;;;14.25;67.11
70133;BME280;57495;49.922;7.966;2023-05-20T01:24:25;100262.28;;;14.36;66.89
70133;BME280;57495;49.922;7.966;2023-05-20T01:26:27;100258.88;;;14.34;67.14
70133;BME280;57495;49.922;7.966;2023-05-20T01:28:28;100250.78;;;14.26;67.42
70133;BME280;57495;49.922;7.966;2023-05-20T01:30:34;100253.13;;;14.21;67.35
70133;BME280;57495;49.922;7.966;2023-05-20T01:32:42;100247.41;;;14.24;67.11
70133;BME280;57495;49.922;7.966;2023-05-20T01:34:44;100254.72;;;14.05;67.92
70133;BME280;57495;49.922;7.966;2023-05-20T01:36:48;100256.16;;;14.18;67.37
70133;BME280;57495;49.922;7.966;2023-05-20T01:38:52;100251.09;;;14.23;67.39
70133;BME280;57495;49.922;7.966;2023-05-20T01:40:56;100254.13;;;14.20;67.33
70133;BME280;57495;49.922;7.966;2023-05-20T01:43:04;100257.16;;;14.25;67.21
70133;BME280;57495;49.922;7.966;2023-05-20T01:45:06;100254.13;;;14.20;67.01
70133;BME280;57495;49.922;7.966;2023-05-20T01:47:08;100253.13;;;14.21;67.35
70133;BME280;57495;49.922;7.966;2023-05-20T01:49:09;100250.78;;;14.26;67.27
70133;BME280;57495;49.922;7.966;2023-05-20T01:51:11;100248.75;;;14.20;67.59
70133;BME280;57495;49.922;7.966;2023-05-20T01:53:12;100244.53;;;14.17;67.63
70133;BME280;57495;49.922;7.966;2023-05-20T01:55:21;100243.00;;;14.15;67.65
70133;BME280;57495;49.922;7.966;2023-05-20T01:57:24;100241.69;;;14.19;67.51
70133;BME280;57495;49.922;7.966;2023-05-20T01:59:25;100241.97;;;14.07;67.92
70133;BME280;57495;49.922;7.966;2023-05-20T02:01:26;100236.06;;;14.04;68.38
70133;BME280;57495;49.922;7.966;2023-05-20T02:03:28;100242.91;;;13.98;68.54
70133;BME280;57495;49.922;7.966;2023-05-20T02:05:29;100237.22;;;14.01;68.31
70133;BME280;57495;49.922;7.966;2023-05-20T02:07:31;100241.56;;;13.94;68.93
70133;BME280;57495;49.922;7.966;2023-05-20T02:09:32;100242.53;;;13.93;68.94
70133;BME280;57495;49.922;7.966;2023-05-20T02:11:35;100242.50;;;13.85;69.22
70133;BME280;57495;49.922;7.966;2023-05-20T02:13:37;100243.88;;;13.89;69.42
70133;BME280;57495;49.922;7.966;2023-05-20T02:15:40;100241.16;;;13.81;69.36
70133;BME280;57495;49.922;7.966;2023-05-20T02:17:41;100239.22;;;13.73;70.00
70133;BME280;57495;49.922;7.966;2023-05-20T02:19:43;100238.06;;;13.76;69.91
70133;BME280;57495;49.922;7.966;2023-05-20T02:21:45;100235.41;;;13.76;69.66
70133;BME280;57495;49.922;7.966;2023-05-20T02:23:54;100236.06;;;13.78;69.94
70133;BME280;57495;49.922;7.966;2023-05-20T02:25:55;100238.59;;;13.53;70.91
70133;BME280;57495;49.922;7.966;2023-05-20T02:27:58;100234.97;;;13.62;70.91
70133;BME280;57495;49.922;7.966;2023-05-20T02:30:00;100238.53;;;13.71;70.36
70133;BME280;57495;49.922;7.966;2023-05-20T02:32:01;100237.66;;;13.62;71.06
70133;BME280;57495;49.922;7.966;2023-05-20T02:34:02;100238.28;;;13.56;71.25
70133;BME280;57495;49.922;7.966;2023-05-20T02:36:04;100239.63;;;13.60;71.21
70133;BME280;57495;49.922;7.966;2023-05-20T02:38:12;100233.94;;;13.63;71.44
70133;BME280;57495;49.922;7.966;2023-05-20T02:40:13;100229.94;;;13.67;70.80
70133;BME280;57495;49.922;7.966;2023-05-20T02:42:14;100229.94;;;13.67;71.51
70133;BME280;57495;49.922;7.966;2023-05-20T02:44:17;100231.94;;;13.65;71.53
70133;BME280;57495;49.922;7.966;2023-05-20T02:46:19;100222.69;;;13.60;71.43
70133;BME280;57495;49.922;7.966;2023-05-20T02:48:20;100228.38;;;13.57;71.73
70133;BME280;57495;49.922;7.966;2023-05-20T02:50:22;100235.03;;;13.52;72.18
70133;BME280;57495;49.922;7.966;2023-05-20T02:52:28;100242.91;;;13.46;72.76
70133;BME280;57495;49.922;7.966;2023-05-20T02:54:32;100237.44;;;13.38;73.70
70133;BME280;57495;49.922;7.966;2023-05-20T02:56:34;100235.09;;;13.34;73.38
70133;BME280;57495;49.922;7.966;2023-05-20T02:58:35;100236.38;;;13.30;74.05
70133;BME280;57495;49.922;7.966;2023-05-20T03:00:38;100232.59;;;13.23;74.66
70133;BME280;57495;49.922;7.966;2023-05-20T03:02:40;100234.94;;;13.18;75.13
70133;BME280;57495;49.922;7.966;2023-05-20T03:04:42;100235.53;;;13.12;75.67
70133;BME280;57495;49.922;7.966;2023-05-20T03:06:45;100231.06;;;13.03;75.96
70133;BME280;57495;49.922;7.966;2023-05-20T03:08:47;100227.66;;;13.10;75.97
70133;BME280;57495;49.922;7.966;2023-05-20T03:10:48;100238.81;;;13.06;75.83
70133;BME280;57495;49.922;7.966;2023-05-20T03:12:50;100226.41;;;13.05;76.09
70133;BME280;57495;49.922;7.966;2023-05-20T03:14:51;100225.09;;;13.09;75.63
70133;BME280;57495;49.922;7.966;2023-05-20T03:16:55;100225.00;;;13.19;75.09
70133;BME280;57495;49.922;7.966;2023-05-20T03:18:57;100223.31;;;13.18;75.10
70133;BME280;57495;49.922;7.966;2023-05-20T03:20:58;100221.00;;;13.23;75.05
70133;BME280;57495;49.922;7.966;2023-05-20T03:23:00;100221.25;;;13.29;74.43
70133;BME280;57495;49.922;7.966;2023-05-20T03:25:01;100225.31;;;13.15;75.11
70133;BME280;57495;49.922;7.966;2023-05-20T03:27:03;100224.91;;;13.28;75.02
70133;BME280;57495;49.922;7.966;2023-05-20T03:29:04;100218.56;;;13.29;74.93
70133;BME280;57495;49.922;7.966;2023-05-20T03:31:06;100226.31;;;13.32;74.79
70133;BME280;57495;49.922;7.966;2023-05-20T03:33:08;100220.19;;;13.22;75.07
70133;BME280;57495;49.922;7.966;2023-05-20T03:35:10;100222.88;;;13.22;75.15
70133;BME280;57495;49.922;7.966;2023-05-20T03:37:12;100229.69;;;12.99;75.90
70133;BME280;57495;49.922;7.966;2023-05-20T03:39:13;100227.00;;;13.17;75.77
70133;BME280;57495;49.922;7.966;2023-05-20T03:41:15;100223.31;;;13.18;75.93
70133;BME280;57495;49.922;7.966;2023-05-20T03:43:16;100223.31;;;13.18;76.00
70133;BME280;57495;49.922;7.966;2023-05-20T03:45:30;100220.47;;;13.19;76.05
70133;BME280;57495;49.922;7.966;2023-05-20T03:47:32;100221.00;;;13.23;75.36
70133;BME280;57495;49.922;7.966;2023-05-20T03:49:35;100218.03;;;13.26;75.62
70133;BME280;57495;49.922;7.966;2023-05-20T03:51:38;100216.19;;;13.08;76.43
70133;BME280;57495;49.922;7.966;2023-05-20T03:53:40;100220.34;;;13.03;76.89
70133;BME280;57495;49.922;7.966;2023-05-20T03:55:41;100215.19;;;13.09;76.91
70133;BME280;57495;49.922;7.966;2023-05-20T03:57:42;100209.38;;;13.14;76.65
70133;BME280;57495;49.922;7.966;2023-05-20T03:59:44;100213.19;;;12.93;77.56
70133;BME280;57495;49.922;7.966;2023-05-20T04:01:45;100205.63;;;13.07;77.24
70133;BME280;57495;49.922;7.966;2023-05-20T04:03:47;100210.38;;;13.13;76.81
70133;BME280;57495;49.922;7.966;2023-05-20T04:05:50;100208.63;;;13.04;77.51
70133;BME280;57495;49.922;7.966;2023-05-20T04:07:51;100212.13;;;13.04;77.62
70133;BME280;57495;49.922;7.966;2023-05-20T04:09:52;100211.75;;;13.17;76.91
70133;BME280;57495;49.922;7.966;2023-05-20T04:11:54;100212.81;;;13.06;77.79
70133;BME280;57495;49.922;7.966;2023-05-20T04:13:56;100205.00;;;13.13;77.65
70133;BME280;57495;49.922;7.966;2023-05-20T04:15:59;100207.25;;;13.00;78.89
70133;BME280;57495;49.922;7.966;2023-05-20T04:18:01;100210.22;;;12.96;79.01
70133;BME280;57495;49.922;7.966;2023-05-20T04:20:03;100211.44;;;12.84;79.84
70133;BME280;57495;49.922;7.966;2023-05-20T04:22:07;100211.38;;;12.76;80.74
70133;BME280;57495;49.922;7.966;2023-05-20T04:24:24;100214.50;;;12.89;79.75
70133;BME280;57495;49.922;7.966;2023-05-20T04:26:26;100212.44;;;12.83;79.94
70133;BME280;57495;49.922;7.966;2023-05-20T04:28:28;100209.53;;;12.94;79.99
70133;BME280;57495;49.922;7.966;2023-05-20T04:30:30;100206.38;;;12.81;80.83
70133;BME280;57495;49.922;7.966;2023-05-20T04:32:32;100208.84;;;12.92;80.49
70133;BME280;57495;49.922;7.966;2023-05-20T04:34:35;100207.00;;;13.11;80.46
70133;BME280;57495;49.922;7.966;2023-05-20T04:36:36;100209.53;;;13.12;80.27
70133;BME280;57495;49.922;7.966;2023-05-20T04:38:57;100210.31;;;13.05;81.22
70133;BME280;57495;49.922;7.966;2023-05-20T04:40:59;100199.94;;;13.10;81.27
70133;BME280;57495;49.922;7.966;2023-05-20T04:43:01;100204.69;;;13.16;80.84
70133;BME280;57495;49.922;7.966;2023-05-20T04:45:03;100201.00;;;13.17;80.65
70133;BME280;57495;49.922;7.966;2023-05-20T04:47:05;100200.31;;;13.15;81.07
70133;BME280;57495;49.922;7.966;2023-05-20T04:49:07;100199.22;;;13.26;80.70
70133;BME280;57495;49.922;7.966;2023-05-20T04:51:08;100204.44;;;13.27;80.31
70133;BME280;57495;49.922;7.966;2023-05-20T04:53:10;100201.09;;;13.25;80.77
70133;BME280;57495;49.922;7.966;2023-05-20T04:55:13;100203.91;;;13.42;80.39
70133;BME280;57495;49.922;7.966;2023-05-20T04:57:15;100201.06;;;13.43;80.02
70133;BME280;57495;49.922;7.966;2023-05-20T04:59:20;100197.78;;;13.31;80.75
70133;BME280;57495;49.922;7.966;2023-05-20T05:01:21;100201.47;;;13.30;81.08
70133;BME280;57495;49.922;7.966;2023-05-20T05:03:22;100203.78;;;13.25;80.85
70133;BME280;57495;49.922;7.966;2023-05-20T05:05:24;100205.16;;;13.47;80.38
70133;BME280;57495;49.922;7.966;2023-05-20T05:07:25;100209.13;;;13.43;80.76
70133;BME280;57495;49.922;7.966;2023-05-20T05:09:27;100202.00;;;13.60;80.13
70133;BME280;57495;49.922;7.966;2023-05-20T05:11:30;100201.06;;;13.43;80.67
70133;BME280;57495;49.922;7.966;2023-05-20T05:13:31;100201.81;;;13.53;80.26
70133;BME280;57495;49.922;7.966;2023-05-20T05:15:32;100201.41;;;13.66;80.23
70133;BME280;57495;49.922;7.966;2023-05-20T05:17:40;100199.69;;;13.65;80.35
70133;BME280;57495;49.922;7.966;2023-05-20T05:19:41;100194.97;;;13.59;81.10
70133;BME280;57495;49.922;7.966;2023-05-20T05:21:43;100191.72;;;13.47;81.70
70133;BME280;57495;49.922;7.966;2023-05-20T05:23:44;100188.16;;;13.47;81.57
70133;BME280;57495;49.922;7.966;2023-05-20T05:25:50;100182.84;;;13.55;81.33
70133;BME280;57495;49.922;7.966;2023-05-20T05:27:52;100182.19;;;13.53;82.14
70133;BME280;57495;49.922;7.966;2023-05-20T05:29:54;100177.16;;;13.58;82.90
70133;BME280;57495;49.922;7.966;2023-05-20T05:31:55;100174.28;;;13.86;82.36
70133;BME280;57495;49.922;7.966;2023-05-20T05:33:57;100175.31;;;13.93;82.30
70133;BME280;57495;49.922;7.966;2023-05-20T05:35:58;100179.50;;;13.87;82.78
70133;BME280;57495;49.922;7.966;2023-05-20T05:38:01;100171.31;;;13.97;82.02
70133;BME280;57495;49.922;7.966;2023-05-20T05:40:03;100169.63;;;13.96;81.06
70133;BME280;57495;49.922;7.966;2023-05-20T05:42:05;100173.97;;;13.89;81.73
70133;BME280;57495;49.922;7.966;2023-05-20T05:44:08;100169.44;;;13.89;82.48
70133;BME280;57495;49.922;7.966;2023-05-20T05:46:09;100177.88;;;14.03;82.29
70133;BME280;57495;49.922;7.966;2023-05-20T05:48:10;100174.22;;;14.12;82.12
70133;BME280;57495;49.922;7.966;2023-05-20T05:50:12;100169.88;;;14.11;82.41
70133;BME280;57495;49.922;7.966;2023-05-20T05:52:13;100169.19;;;14.09;82.32
70133;BME280;57495;49.922;7.966;2023-05-20T05:54:15;100170.09;;;14.26;81.91
70133;BME280;57495;49.922;7.966;2023-05-20T05:56:16;100173.66;;;14.35;81.28
70133;BME280;57495;49.922;7.966;2023-05-20T05:58:18;100181.22;;;14.39;81.54
70133;BME280;57495;49.922;7.966;2023-05-20T06:00:21;100177.72;;;14.47;80.09
70133;BME280;57495;49.922;7.966;2023-05-20T06:02:22;100175.84;;;14.39;79.60
70133;BME280;57495;49.922;7.966;2023-05-20T06:04:24;100174.56;;;14.60;79.18
70133;BME280;57495;49.922;7.966;2023-05-20T06:06:25;100184.50;;;14.67;79.64
70133;BME280;57495;49.922;7.966;2023-05-20T06:08:27;100174.53;;;14.52;79.19
70133;BME280;57495;49.922;7.966;2023-05-20T06:10:28;100181.81;;;14.67;80.04
70133;BME280;57495;49.922;7.966;2023-05-20T06:12:30;100178.66;;;14.80;79.50
70133;BME280;57495;49.922;7.966;2023-05-20T06:14:31;100182.69;;;14.76;80.57
70133;BME280;57495;49.922;7.966;2023-05-20T06:16:34;100178.16;;;14.93;78.85
70133;BME280;57495;49.922;7.966;2023-05-20T06:18:35;100172.63;;;15.11;78.52
70133;BME280;57495;49.922;7.966;2023-05-20T06:20:37;100176.97;;;15.28;78.13
70133;BME280;57495;49.922;7.966;2023-05-20T06:22:38;100171.22;;;15.64;78.08
70133;BME280;57495;49.922;7.966;2023-05-20T06:24:40;100166.72;;;16.04;77.14
70133;BME280;57495;49.922;7.966;2023-05-20T06:26:41;100168.59;;;16.35;75.56
70133;BME280;57495;49.922;7.966;2023-05-20T06:28:45;100169.25;;;16.46;74.40
70133;BME280;57495;49.922;7.966;2023-05-20T06:30:46;100165.50;;;16.47;74.13
70133;BME280;57495;49.922;7.966;2023-05-20T06:32:49;100166.22;;;16.40;73.90
70133;BME280;57495;49.922;7.966;2023-05-20T06:34:50;100162.41;;;16.58;73.32
70133;BME280;57495;49.922;7.966;2023-05-20T06:36:52;100165.47;;;16.23;74.82
70133;BME280;57495;49.922;7.966;2023-05-20T06:38:53;100168.06;;;16.09;74.27
70133;BME280;57495;49.922;7.966;2023-05-20T06:40:55;100158.63;;;16.04;73.88
70133;BME280;57495;49.922;7.966;2023-05-20T06:42:56;100157.88;;;16.19;73.92
70133;BME280;57495;49.922;7.966;2023-05-20T06:44:58;100154.75;;;16.38;73.88
70133;BME280;57495;49.922;7.966;2023-05-20T06:46:59;100158.63;;;16.67;73.03
70133;BME280;57495;49.922;7.966;2023-05-20T06:49:02;100151.31;;;16.76;72.46
70133;BME280;57495;49.922;7.966;2023-05-20T06:51:06;100161.31;;;16.67;71.83
70133;BME280;57495;49.922;7.966;2023-05-20T06:53:08;100153.09;;;16.92;71.80
70133;BME280;57495;49.922;7.966;2023-05-20T06:55:10;100152.31;;;17.21;73.88
70133;BME280;57495;49.922;7.966;2023-05-20T06:57:11;100148.53;;;17.30;70.61
70133;BME280;57495;49.922;7.966;2023-05-20T06:59:13;100145.19;;;17.43;69.79
70133;BME280;57495;49.922;7.966;2023-05-20T07:01:14;100148.94;;;17.42;70.29
70133;BME280;57495;49.922;7.966;2023-05-20T07:03:16;100153.53;;;17.56;69.21
70133;BME280;57495;49.922;7.966;2023-05-20T07:05:19;100137.91;;;17.29;68.70
70133;BME280;57495;49.922;7.966;2023-05-20T07:07:20;100143.53;;;17.42;69.65
70133;BME280;57495;49.922;7.966;2023-05-20T07:09:21;100142.50;;;17.58;70.16
70133;BME280;57495;49.922;7.966;2023-05-20T07:11:23;100143.69;;;17.26;69.36
70133;BME280;57495;49.922;7.966;2023-05-20T07:13:25;100146.88;;;17.06;70.90
70133;BME280;57495;49.922;7.966;2023-05-20T07:15:26;100154.94;;;17.14;71.88
70133;BME280;57495;49.922;7.966;2023-05-20T07:17:27;100143.94;;;16.93;72.36
70133;BME280;57495;49.922;7.966;2023-05-20T07:19:29;100144.34;;;16.90;70.30
70133;BME280;57495;49.922;7.966;2023-05-20T07:21:32;100149.34;;;16.93;71.92
70133;BME280;57495;49.922;7.966;2023-05-20T07:23:33;100143.84;;;16.86;73.75
70133;BME280;57495;49.922;7.966;2023-05-20T07:25:35;100141.84;;;17.03;72.95
70133;BME280;57495;49.922;7.966;2023-05-20T07:27:36;100135.63;;;17.17;73.43
70133;BME280;57495;49.922;7.966;2023-05-20T07:29:38;100126.91;;;17.45;71.42
70133;BME280;57495;49.922;7.966;2023-05-20T07:31:39;100133.66;;;17.49;70.91
70133;BME280;57495;49.922;7.966;2023-05-20T07:33:41;100127.19;;;17.50;71.20
70133;BME280;57495;49.922;7.966;2023-05-20T07:35:42;100121.72;;;17.73;70.42
70133;BME280;57495;49.922;7.966;2023-05-20T07:37:45;100125.63;;;18.01;70.14
70133;BME280;57495;49.922;7.966;2023-05-20T07:39:47;100116.28;;;18.18;67.57
70133;BME280;57495;49.922;7.966;2023-05-20T07:41:48;100120.00;;;18.53;68.15
70133;BME280;57495;49.922;7.966;2023-05-20T07:43:50;100116.84;;;18.93;66.43
70133;BME280;57495;49.922;7.966;2023-05-20T07:45:52;100119.94;;;19.11;66.70
70133;BME280;57495;49.922;7.966;2023-05-20T07:47:54;100119.25;;;19.31;65.24
70133;BME280;57495;49.922;7.966;2023-05-20T07:49:56;100113.66;;;19.39;64.20
70133;BME280;57495;49.922;7.966;2023-05-20T07:51:58;100104.16;;;19.50;63.81
70133;BME280;57495;49.922;7.966;2023-05-20T07:54:01;100114.34;;;19.76;64.15
70133;BME280;57495;49.922;7.966;2023-05-20T07:56:03;100112.88;;;19.74;63.72
70133;BME280;57495;49.922;7.966;2023-05-20T07:58:05;100104.03;;;19.65;62.65
70133;BME280;57495;49.922;7.966;2023-05-20T08:00:08;100108.00;;;19.69;62.64
70133;BME280;57495;49.922;7.966;2023-05-20T08:02:11;100104.28;;;19.70;61.23
70133;BME280;57495;49.922;7.966;2023-05-20T08:04:12;100104.75;;;19.17;62.93
70133;BME280;57495;49.922;7.966;2023-05-20T08:06:23;100107.44;;;19.10;63.05
70133;BME280;57495;49.922;7.966;2023-05-20T08:08:24;100098.66;;;19.72;65.56
70133;BME280;57495;49.922;7.966;2023-05-20T08:10:29;100101.94;;;19.67;62.41
70133;BME280;57495;49.922;7.966;2023-05-20T08:12:31;100097.28;;;19.54;62.80
70133;BME280;57495;49.922;7.966;2023-05-20T08:14:32;100099.38;;;19.24;64.25
70133;BME280;57495;49.922;7.966;2023-05-20T08:16:35;100101.06;;;19.25;64.14
70133;BME280;57495;49.922;7.966;2023-05-20T08:18:36;100103.72;;;19.46;63.97
70133;BME280;57495;49.922;7.966;2023-05-20T08:20:38;100094.63;;;19.61;63.27
70133;BME280;57495;49.922;7.966;2023-05-20T08:22:39;100105.97;;;19.71;62.01
70133;BME280;57495;49.922;7.966;2023-05-20T08:24:40;100102.13;;;20.00;62.63
70133;BME280;57495;49.922;7.966;2023-05-20T08:26:43;100096.56;;;20.08;61.23
70133;BME280;57495;49.922;7.966;2023-05-20T08:28:45;100102.06;;;20.28;61.06
70133;BME280;57495;49.922;7.966;2023-05-20T08:30:47;100108.19;;;20.02;61.10
70133;BME280;57495;49.922;7.966;2023-05-20T08:32:49;100107.56;;;19.94;61.85
70133;BME280;57495;49.922;7.966;2023-05-20T08:34:50;100104.53;;;20.23;61.58
70133;BME280;57495;49.922;7.966;2023-05-20T08:36:52;100110.84;;;20.51;61.33
70133;BME280;57495;49.922;7.966;2023-05-20T08:38:54;100105.59;;;20.36;60.44
70133;BME280;57495;49.922;7.966;2023-05-20T08:40:56;100105.78;;;20.27;61.28
70133;BME280;57495;49.922;7.966;2023-05-20T08:42:59;100104.78;;;20.28;60.17
70133;BME280;57495;49.922;7.966;2023-05-20T08:45:02;100092.44;;;20.33;60.70
70133;BME280;57495;49.922;7.966;2023-05-20T08:47:04;100094.84;;;20.62;60.27
70133;BME280;57495;49.922;7.966;2023-05-20T08:49:06;100092.97;;;20.83;62.64
70133;BME280;57495;49.922;7.966;2023-05-20T08:51:08;100097.09;;;20.59;60.21
70133;BME280;57495;49.922;7.966;2023-05-20T08:53:10;100100.13;;;20.22;61.23
70133;BME280;57495;49.922;7.966;2023-05-20T08:55:17;100097.38;;;20.09;60.65
70133;BME280;57495;49.922;7.966;2023-05-20T08:57:22;100094.22;;;20.05;60.97
70133;BME280;57495;49.922;7.966;2023-05-20T08:59:25;100105.31;;;20.11;61.89
70133;BME280;57495;49.922;7.966;2023-05-20T09:01:26;100103.94;;;19.80;60.65
70133;BME280;57495;49.922;7.966;2023-05-20T09:03:28;100107.31;;;19.54;62.17
70133;BME280;57495;49.922;7.966;2023-05-20T09:05:29;100111.47;;;19.21;62.45
70133;BME280;57495;49.922;7.966;2023-05-20T09:07:31;100110.22;;;19.24;63.23
70133;BME280;57495;49.922;7.966;2023-05-20T09:09:33;100107.22;;;19.40;63.37
70133;BME280;57495;49.922;7.966;2023-05-20T09:11:35;100107.84;;;19.42;64.10
70133;BME280;57495;49.922;7.966;2023-05-20T09:13:36;100109.09;;;19.40;64.57
70133;BME280;57495;49.922;7.966;2023-05-20T09:15:39;100111.13;;;19.31;64.13
70133;BME280;57495;49.922;7.966;2023-05-20T09:17:41;100106.09;;;19.28;64.39
70133;BME280;57495;49.922;7.966;2023-05-20T09:19:42;100104.31;;;19.13;65.16
70133;BME280;57495;49.922;7.966;2023-05-20T09:21:45;100111.50;;;19.28;65.49
70133;BME280;57495;49.922;7.966;2023-05-20T09:23:47;100114.19;;;19.21;63.97
70133;BME280;57495;49.922;7.966;2023-05-20T09:25:50;100114.41;;;19.26;64.02
70133;BME280;57495;49.922;7.966;2023-05-20T09:27:52;100113.59;;;19.26;64.19
70133;BME280;57495;49.922;7.966;2023-05-20T09:29:53;100101.88;;;19.54;63.56
70133;BME280;57495;49.922;7.966;2023-05-20T09:31:56;100098.22;;;19.68;63.47
70133;BME280;57495;49.922;7.966;2023-05-20T09:33:59;100096.06;;;19.98;62.65
70133;BME280;57495;49.922;7.966;2023-05-20T09:36:02;100089.91;;;20.24;63.24
70133;BME280;57495;49.922;7.966;2023-05-20T09:38:05;100096.25;;;20.52;62.77
70133;BME280;57495;49.922;7.966;2023-05-20T09:40:44;100088.09;;;20.52;61.56
70133;BME280;57495;49.922;7.966;2023-05-20T09:42:49;100087.72;;;20.61;62.51
70133;BME280;57495;49.922;7.966;2023-05-20T09:44:53;100087.50;;;20.56;60.32
70133;BME280;57495;49.922;7.966;2023-05-20T09:46:57;100078.91;;;20.59;61.15
70133;BME280;57495;49.922;7.966;2023-05-20T09:49:00;100074.56;;;21.05;60.40
70133;BME280;57495;49.922;7.966;2023-05-20T09:51:03;100073.56;;;21.85;57.53
70133;BME280;57495;49.922;7.966;2023-05-20T09:53:05;100078.81;;;22.31;59.15
70133;BME280;57495;49.922;7.966;2023-05-20T09:55:09;100081.88;;;22.03;57.55
70133;BME280;57495;49.922;7.966;2023-05-20T09:57:11;100083.66;;;21.84;58.09
70133;BME280;57495;49.922;7.966;2023-05-20T09:59:14;100076.53;;;21.76;56.84
70133;BME280;57495;49.922;7.966;2023-05-20T10:01:16;100071.53;;;21.67;58.90
70133;BME280;57495;49.922;7.966;2023-05-20T10:03:20;100066.97;;;21.54;58.21
70133;BME280;57495;49.922;7.966;2023-05-20T10:05:24;100063.22;;;21.55;58.27
70133;BME280;57495;49.922;7.966;2023-05-20T10:07:43;100065.22;;;21.79;57.92
70133;BME280;57495;49.922;7.966;2023-05-20T10:09:58;100058.91;;;21.86;56.52
70133;BME280;57495;49.922;7.966;2023-05-20T10:12:09;100050.44;;;22.00;57.09
70133;BME280;57495;49.922;7.966;2023-05-20T10:14:21;100049.69;;;22.32;56.32
70133;BME280;57495;49.922;7.966;2023-05-20T10:16:34;100054.34;;;22.56;54.96
70133;BME280;57495;49.922;7.966;2023-05-20T10:18:48;100050.84;;;23.00;55.30
70133;BME280;57495;49.922;7.966;2023-05-20T10:20:53;100060.75;;;22.94;55.88
70133;BME280;57495;49.922;7.966;2023-05-20T10:22:55;100047.84;;;23.08;55.32
70133;BME280;57495;49.922;7.966;2023-05-20T10:24:58;100053.56;;;22.49;54.05
70133;BME280;57495;49.922;7.966;2023-05-20T10:27:01;100048.78;;;22.70;54.62
70133;BME280;57495;49.922;7.966;2023-05-20T10:29:13;100046.25;;;22.75;53.36
70133;BME280;57495;49.922;7.966;2023-05-20T10:31:17;100046.16;;;22.82;54.06
70133;BME280;57495;49.922;7.966;2023-05-20T10:33:18;100042.03;;;22.15;54.21
70133;BME280;57495;49.922;7.966;2023-05-20T10:35:22;100052.53;;;23.01;53.92
70133;BME280;57495;49.922;7.966;2023-05-20T10:37:28;100051.25;;;23.03;55.38
70133;BME280;57495;49.922;7.966;2023-05-20T10:39:31;100047.03;;;22.82;55.03
70133;BME280;57495;49.922;7.966;2023-05-20T10:41:33;100045.22;;;22.44;55.84